sensor_id;sensor_type;location;lat;lon;timestamp;P1;durP1;ratioP1;P2;durP2;ratioP2
69502;SDS011;56704;54.242;12.442;2023-07-13T00:01:12;5.55;;;2.22;;
69502;SDS011;56704;54.242;12.442;2023-07-13T00:03:40;5.40;;;1.90;;
69502;SDS011;56704;54.242;12.442;2023-07-13T00:06:07;6.38;;;2.20;;
69502;SDS011;56704;54.242;12.442;2023-07-13T00:08:34;6.57;;;2.47;;
69502;SDS011;56704;54.242;12.442;2023-07-13T00:11:03;4.85;;;1.60;;
69502;SDS011;56704;54.242;12.442;2023-07-13T00:13:31;5.28;;;1.85;;
69502;SDS011;56704;54.242;12.442;2023-07-13T00:15:59;4.90;;;1.93;;
69502;SDS011;56704;54.242;12.442;2023-07-13T00:18:26;5.53;;;1.70;;
69502;SDS011;56704;54.242;12.442;2023-07-13T00:20:55;5.15;;;1.80;;
69502;SDS011;56704;54.242;12.442;2023-07-13T00:23:30;5.72;;;2.00;;
69502;SDS011;56704;54.242;12.442;2023-07-13T00:25:59;3.90;;;1.60;;
69502;SDS011;56704;54.242;12.442;2023-07-13T00:28:27;4.03;;;1.50;;
69502;SDS011;56704;54.242;12.442;2023-07-13T00:30:54;6.63;;;1.60;;
69502;SDS011;56704;54.242;12.442;2023-07-13T00:33:22;4.70;;;1.50;;
69502;SDS011;56704;54.242;12.442;2023-07-13T00:35:49;5.25;;;1.50;;
69502;SDS011;56704;54.242;12.442;2023-07-13T00:38:16;4.85;;;1.60;;
69502;SDS011;56704;54.242;12.442;2023-07-13T00:40:43;7.83;;;1.70;;
69502;SDS011;56704;54.242;12.442;2023-07-13T00:43:12;7.28;;;1.70;;
69502;SDS011;56704;54.242;12.442;2023-07-13T00:48:27;5.13;;;1.70;;
69502;SDS011;56704;54.242;12.442;2023-07-13T00:50:56;5.93;;;2.10;;
69502;SDS011;56704;54.242;12.442;2023-07-13T00:53:24;6.17;;;1.50;;
69502;SDS011;56704;54.242;12.442;2023-07-13T00:55:52;4.80;;;1.90;;
69502;SDS011;56704;54.242;12.442;2023-07-13T00:58:20;5.63;;;1.70;;
69502;SDS011;56704;54.242;12.442;2023-07-13T01:00:47;4.93;;;1.77;;
69502;SDS011;56704;54.242;12.442;2023-07-13T01:03:15;4.22;;;1.52;;
69502;SDS011;56704;54.242;12.442;2023-07-13T01:05:44;3.70;;;1.50;;
69502;SDS011;56704;54.242;12.442;2023-07-13T01:08:13;6.03;;;1.60;;
69502;SDS011;56704;54.242;12.442;2023-07-13T01:10:40;4.43;;;1.70;;
69502;SDS011;56704;54.242;12.442;2023-07-13T01:13:08;7.82;;;1.60;;
69502;SDS011;56704;54.242;12.442;2023-07-13T01:15:37;5.95;;;1.90;;
69502;SDS011;56704;54.242;12.442;2023-07-13T01:18:05;3.43;;;1.50;;
69502;SDS011;56704;54.242;12.442;2023-07-13T01:20:33;4.93;;;2.00;;
69502;SDS011;56704;54.242;12.442;2023-07-13T01:23:03;4.57;;;2.00;;
69502;SDS011;56704;54.242;12.442;2023-07-13T01:25:32;5.97;;;1.70;;
69502;SDS011;56704;54.242;12.442;2023-07-13T01:27:59;4.40;;;1.55;;
69502;SDS011;56704;54.242;12.442;2023-07-13T01:30:26;5.93;;;1.40;;
69502;SDS011;56704;54.242;12.442;2023-07-13T01:32:53;6.15;;;1.23;;
69502;SDS011;56704;54.242;12.442;2023-07-13T01:35:20;4.40;;;1.30;;
69502;SDS011;56704;54.242;12.442;2023-07-13T01:37:48;6.93;;;1.50;;
69502;SDS011;56704;54.242;12.442;2023-07-13T01:40:16;6.65;;;1.58;;
69502;SDS011;56704;54.242;12.442;2023-07-13T01:42:44;6.03;;;1.60;;
69502;SDS011;56704;54.242;12.442;2023-07-13T01:45:11;5.93;;;1.40;;
69502;SDS011;56704;54.242;12.442;2023-07-13T01:47:38;6.25;;;1.50;;
69502;SDS011;56704;54.242;12.442;2023-07-13T01:50:05;5.10;;;1.25;;
69502;SDS011;56704;54.242;12.442;2023-07-13T01:52:32;5.50;;;1.48;;
69502;SDS011;56704;54.242;12.442;2023-07-13T01:54:59;5.70;;;1.20;;
69502;SDS011;56704;54.242;12.442;2023-07-13T01:57:28;6.93;;;1.73;;
69502;SDS011;56704;54.242;12.442;2023-07-13T01:59:55;6.20;;;1.98;;
69502;SDS011;56704;54.242;12.442;2023-07-13T02:02:22;6.03;;;1.92;;
69502;SDS011;56704;54.242;12.442;2023-07-13T02:04:50;4.65;;;1.60;;
69502;SDS011;56704;54.242;12.442;2023-07-13T02:07:17;5.83;;;1.53;;
69502;SDS011;56704;54.242;12.442;2023-07-13T02:09:44;4.50;;;1.63;;
69502;SDS011;56704;54.242;12.442;2023-07-13T02:12:11;4.72;;;1.35;;
69502;SDS011;56704;54.242;12.442;2023-07-13T02:14:39;4.57;;;1.60;;
69502;SDS011;56704;54.242;12.442;2023-07-13T02:17:07;4.15;;;1.55;;
69502;SDS011;56704;54.242;12.442;2023-07-13T02:19:34;2.80;;;0.93;;
69502;SDS011;56704;54.242;12.442;2023-07-13T02:22:01;4.28;;;1.23;;
69502;SDS011;56704;54.242;12.442;2023-07-13T02:24:28;2.80;;;1.15;;
69502;SDS011;56704;54.242;12.442;2023-07-13T02:26:55;4.75;;;1.80;;
69502;SDS011;56704;54.242;12.442;2023-07-13T02:29:22;4.75;;;1.15;;
69502;SDS011;56704;54.242;12.442;2023-07-13T02:31:51;3.93;;;1.20;;
69502;SDS011;56704;54.242;12.442;2023-07-13T02:34:18;3.55;;;1.20;;
69502;SDS011;56704;54.242;12.442;2023-07-13T02:36:45;4.43;;;1.65;;
69502;SDS011;56704;54.242;12.442;2023-07-13T02:39:13;4.72;;;1.23;;
69502;SDS011;56704;54.242;12.442;2023-07-13T02:41:40;6.38;;;1.48;;
69502;SDS011;56704;54.242;12.442;2023-07-13T02:44:07;2.83;;;1.03;;
69502;SDS011;56704;54.242;12.442;2023-07-13T02:46:36;3.22;;;1.27;;
69502;SDS011;56704;54.242;12.442;2023-07-13T02:49:05;6.38;;;1.80;;
69502;SDS011;56704;54.242;12.442;2023-07-13T02:51:32;3.97;;;1.50;;
69502;SDS011;56704;54.242;12.442;2023-07-13T02:53:59;5.55;;;1.60;;
69502;SDS011;56704;54.242;12.442;2023-07-13T02:56:27;4.13;;;1.40;;
69502;SDS011;56704;54.242;12.442;2023-07-13T02:58:55;5.25;;;1.50;;
69502;SDS011;56704;54.242;12.442;2023-07-13T03:01:22;4.38;;;1.40;;
69502;SDS011;56704;54.242;12.442;2023-07-13T03:03:50;4.65;;;1.38;;
69502;SDS011;56704;54.242;12.442;2023-07-13T03:06:19;3.60;;;1.05;;
69502;SDS011;56704;54.242;12.442;2023-07-13T03:08:46;6.33;;;1.40;;
69502;SDS011;56704;54.242;12.442;2023-07-13T03:11:15;4.32;;;1.58;;
69502;SDS011;56704;54.242;12.442;2023-07-13T03:13:43;6.65;;;1.42;;
69502;SDS011;56704;54.242;12.442;2023-07-13T03:16:10;2.90;;;1.20;;
69502;SDS011;56704;54.242;12.442;2023-07-13T03:18:37;5.57;;;1.60;;
69502;SDS011;56704;54.242;12.442;2023-07-13T03:21:05;6.83;;;1.67;;
69502;SDS011;56704;54.242;12.442;2023-07-13T03:23:33;6.53;;;1.55;;
69502;SDS011;56704;54.242;12.442;2023-07-13T03:26:02;5.18;;;1.58;;
69502;SDS011;56704;54.242;12.442;2023-07-13T03:28:29;7.65;;;1.60;;
69502;SDS011;56704;54.242;12.442;2023-07-13T03:31:00;4.72;;;1.90;;
69502;SDS011;56704;54.242;12.442;2023-07-13T03:33:27;6.90;;;1.80;;
69502;SDS011;56704;54.242;12.442;2023-07-13T03:35:54;5.95;;;1.48;;
69502;SDS011;56704;54.242;12.442;2023-07-13T03:38:21;5.20;;;1.90;;
69502;SDS011;56704;54.242;12.442;2023-07-13T03:40:50;8.05;;;2.13;;
69502;SDS011;56704;54.242;12.442;2023-07-13T03:43:17;4.40;;;1.80;;
69502;SDS011;56704;54.242;12.442;2023-07-13T03:45:45;10.03;;;1.83;;
69502;SDS011;56704;54.242;12.442;2023-07-13T03:48:12;5.35;;;1.58;;
69502;SDS011;56704;54.242;12.442;2023-07-13T03:50:39;4.47;;;1.40;;
69502;SDS011;56704;54.242;12.442;2023-07-13T03:53:07;4.05;;;1.33;;
69502;SDS011;56704;54.242;12.442;2023-07-13T03:55:34;8.60;;;1.50;;
69502;SDS011;56704;54.242;12.442;2023-07-13T04:00:45;5.47;;;1.48;;
69502;SDS011;56704;54.242;12.442;2023-07-13T04:03:12;6.18;;;1.58;;
69502;SDS011;56704;54.242;12.442;2023-07-13T04:05:39;5.47;;;1.70;;
69502;SDS011;56704;54.242;12.442;2023-07-13T04:08:06;6.28;;;1.30;;
69502;SDS011;56704;54.242;12.442;2023-07-13T04:10:33;5.80;;;1.80;;
69502;SDS011;56704;54.242;12.442;2023-07-13T04:13:01;4.82;;;1.33;;
69502;SDS011;56704;54.242;12.442;2023-07-13T04:15:29;6.05;;;1.60;;
69502;SDS011;56704;54.242;12.442;2023-07-13T04:17:58;4.50;;;1.45;;
69502;SDS011;56704;54.242;12.442;2023-07-13T04:20:25;4.68;;;1.67;;
69502;SDS011;56704;54.242;12.442;2023-07-13T04:22:52;5.10;;;1.33;;
69502;SDS011;56704;54.242;12.442;2023-07-13T04:25:20;7.03;;;1.55;;
69502;SDS011;56704;54.242;12.442;2023-07-13T04:27:47;8.52;;;1.63;;
69502;SDS011;56704;54.242;12.442;2023-07-13T04:30:15;5.70;;;1.80;;
69502;SDS011;56704;54.242;12.442;2023-07-13T04:32:42;6.47;;;1.55;;
69502;SDS011;56704;54.242;12.442;2023-07-13T04:35:10;3.93;;;1.50;;
69502;SDS011;56704;54.242;12.442;2023-07-13T04:37:39;6.60;;;1.98;;
69502;SDS011;56704;54.242;12.442;2023-07-13T04:40:06;7.75;;;2.30;;
69502;SDS011;56704;54.242;12.442;2023-07-13T04:42:36;5.78;;;1.92;;
69502;SDS011;56704;54.242;12.442;2023-07-13T04:45:04;7.75;;;2.00;;
69502;SDS011;56704;54.242;12.442;2023-07-13T04:47:31;5.23;;;2.50;;
69502;SDS011;56704;54.242;12.442;2023-07-13T04:49:58;8.43;;;2.28;;
69502;SDS011;56704;54.242;12.442;2023-07-13T04:52:27;7.53;;;2.63;;
69502;SDS011;56704;54.242;12.442;2023-07-13T04:54:54;5.68;;;2.20;;
69502;SDS011;56704;54.242;12.442;2023-07-13T04:57:21;4.55;;;2.10;;
69502;SDS011;56704;54.242;12.442;2023-07-13T04:59:48;5.87;;;1.70;;
69502;SDS011;56704;54.242;12.442;2023-07-13T05:02:15;4.93;;;2.50;;
69502;SDS011;56704;54.242;12.442;2023-07-13T05:04:43;5.70;;;2.08;;
69502;SDS011;56704;54.242;12.442;2023-07-13T05:07:13;7.90;;;2.20;;
69502;SDS011;56704;54.242;12.442;2023-07-13T05:09:41;4.13;;;1.58;;
69502;SDS011;56704;54.242;12.442;2023-07-13T05:12:08;3.10;;;1.47;;
69502;SDS011;56704;54.242;12.442;2023-07-13T05:14:36;5.25;;;1.73;;
69502;SDS011;56704;54.242;12.442;2023-07-13T05:17:03;5.57;;;1.95;;
69502;SDS011;56704;54.242;12.442;2023-07-13T05:19:30;5.65;;;1.73;;
69502;SDS011;56704;54.242;12.442;2023-07-13T05:21:57;3.35;;;1.33;;
69502;SDS011;56704;54.242;12.442;2023-07-13T05:24:24;3.93;;;1.40;;
69502;SDS011;56704;54.242;12.442;2023-07-13T05:26:53;5.15;;;1.50;;
69502;SDS011;56704;54.242;12.442;2023-07-13T05:29:20;3.70;;;1.20;;
69502;SDS011;56704;54.242;12.442;2023-07-13T05:31:48;4.75;;;1.40;;
69502;SDS011;56704;54.242;12.442;2023-07-13T05:34:15;3.20;;;1.15;;
69502;SDS011;56704;54.242;12.442;2023-07-13T05:36:42;5.83;;;1.30;;
69502;SDS011;56704;54.242;12.442;2023-07-13T05:39:09;4.97;;;1.42;;
69502;SDS011;56704;54.242;12.442;2023-07-13T05:41:36;2.75;;;1.00;;
69502;SDS011;56704;54.242;12.442;2023-07-13T05:44:05;4.60;;;1.20;;
69502;SDS011;56704;54.242;12.442;2023-07-13T05:46:32;3.08;;;0.70;;
69502;SDS011;56704;54.242;12.442;2023-07-13T05:48:59;3.97;;;1.00;;
69502;SDS011;56704;54.242;12.442;2023-07-13T05:51:26;3.38;;;0.80;;
69502;SDS011;56704;54.242;12.442;2023-07-13T05:53:53;3.70;;;0.95;;
69502;SDS011;56704;54.242;12.442;2023-07-13T05:56:21;3.85;;;1.05;;
69502;SDS011;56704;54.242;12.442;2023-07-13T05:58:48;3.50;;;1.02;;
69502;SDS011;56704;54.242;12.442;2023-07-13T06:01:17;3.33;;;0.90;;
69502;SDS011;56704;54.242;12.442;2023-07-13T06:03:45;5.28;;;1.00;;
69502;SDS011;56704;54.242;12.442;2023-07-13T06:06:13;4.18;;;0.85;;
69502;SDS011;56704;54.242;12.442;2023-07-13T06:08:40;4.07;;;0.90;;
69502;SDS011;56704;54.242;12.442;2023-07-13T06:11:08;2.90;;;0.90;;
69502;SDS011;56704;54.242;12.442;2023-07-13T06:13:36;5.73;;;1.10;;
69502;SDS011;56704;54.242;12.442;2023-07-13T06:16:04;2.85;;;0.70;;
69502;SDS011;56704;54.242;12.442;2023-07-13T06:18:33;2.05;;;0.75;;
69502;SDS011;56704;54.242;12.442;2023-07-13T06:21:00;4.47;;;1.10;;
69502;SDS011;56704;54.242;12.442;2023-07-13T06:23:28;4.88;;;1.00;;
69502;SDS011;56704;54.242;12.442;2023-07-13T06:25:55;4.47;;;1.20;;
69502;SDS011;56704;54.242;12.442;2023-07-13T06:28:22;4.55;;;1.13;;
69502;SDS011;56704;54.242;12.442;2023-07-13T06:30:49;3.08;;;0.98;;
69502;SDS011;56704;54.242;12.442;2023-07-13T06:33:16;5.82;;;1.38;;
69502;SDS011;56704;54.242;12.442;2023-07-13T06:35:45;3.28;;;1.27;;
69502;SDS011;56704;54.242;12.442;2023-07-13T06:38:12;2.43;;;0.77;;
69502;SDS011;56704;54.242;12.442;2023-07-13T06:40:39;3.05;;;1.00;;
69502;SDS011;56704;54.242;12.442;2023-07-13T06:43:06;2.95;;;1.20;;
69502;SDS011;56704;54.242;12.442;2023-07-13T06:45:39;4.03;;;0.90;;
69502;SDS011;56704;54.242;12.442;2023-07-13T06:48:07;2.95;;;0.90;;
69502;SDS011;56704;54.242;12.442;2023-07-13T06:50:34;4.60;;;1.30;;
69502;SDS011;56704;54.242;12.442;2023-07-13T06:53:02;2.85;;;1.20;;
69502;SDS011;56704;54.242;12.442;2023-07-13T06:55:30;4.47;;;1.42;;
69502;SDS011;56704;54.242;12.442;2023-07-13T06:57:57;4.13;;;1.30;;
69502;SDS011;56704;54.242;12.442;2023-07-13T07:00:24;3.83;;;1.08;;
69502;SDS011;56704;54.242;12.442;2023-07-13T07:02:51;4.90;;;0.90;;
69502;SDS011;56704;54.242;12.442;2023-07-13T07:05:18;5.55;;;1.20;;
69502;SDS011;56704;54.242;12.442;2023-07-13T07:07:46;4.47;;;1.15;;
69502;SDS011;56704;54.242;12.442;2023-07-13T07:10:15;2.33;;;0.73;;
69502;SDS011;56704;54.242;12.442;2023-07-13T07:12:42;5.90;;;1.30;;
69502;SDS011;56704;54.242;12.442;2023-07-13T07:15:10;5.37;;;1.43;;
69502;SDS011;56704;54.242;12.442;2023-07-13T07:17:37;3.35;;;1.15;;
69502;SDS011;56704;54.242;12.442;2023-07-13T07:20:04;4.53;;;1.13;;
69502;SDS011;56704;54.242;12.442;2023-07-13T07:22:32;4.13;;;0.88;;
69502;SDS011;56704;54.242;12.442;2023-07-13T07:24:59;5.10;;;1.23;;
69502;SDS011;56704;54.242;12.442;2023-07-13T07:27:28;3.73;;;1.07;;
69502;SDS011;56704;54.242;12.442;2023-07-13T07:29:55;3.60;;;1.20;;
69502;SDS011;56704;54.242;12.442;2023-07-13T07:32:23;3.95;;;1.20;;
69502;SDS011;56704;54.242;12.442;2023-07-13T07:34:50;3.13;;;1.20;;
69502;SDS011;56704;54.242;12.442;2023-07-13T07:37:17;3.75;;;1.00;;
69502;SDS011;56704;54.242;12.442;2023-07-13T07:39:44;4.47;;;1.27;;
69502;SDS011;56704;54.242;12.442;2023-07-13T07:42:11;4.05;;;1.50;;
69502;SDS011;56704;54.242;12.442;2023-07-13T07:44:41;4.60;;;1.58;;
69502;SDS011;56704;54.242;12.442;2023-07-13T07:47:08;5.07;;;1.38;;
69502;SDS011;56704;54.242;12.442;2023-07-13T07:49:35;5.53;;;1.40;;
69502;SDS011;56704;54.242;12.442;2023-07-13T07:52:03;2.93;;;1.10;;
69502;SDS011;56704;54.242;12.442;2023-07-13T07:54:30;4.40;;;1.23;;
69502;SDS011;56704;54.242;12.442;2023-07-13T07:56:58;4.40;;;1.20;;
69502;SDS011;56704;54.242;12.442;2023-07-13T07:59:25;3.17;;;0.90;;
69502;SDS011;56704;54.242;12.442;2023-07-13T08:01:53;5.28;;;1.25;;
69502;SDS011;56704;54.242;12.442;2023-07-13T08:04:20;5.47;;;1.30;;
69502;SDS011;56704;54.242;12.442;2023-07-13T08:06:47;5.30;;;1.00;;
69502;SDS011;56704;54.242;12.442;2023-07-13T08:09:15;5.22;;;1.60;;
69502;SDS011;56704;54.242;12.442;2023-07-13T08:11:42;4.55;;;1.48;;
69502;SDS011;56704;54.242;12.442;2023-07-13T08:14:09;3.30;;;1.20;;
69502;SDS011;56704;54.242;12.442;2023-07-13T08:16:36;3.73;;;1.53;;
69502;SDS011;56704;54.242;12.442;2023-07-13T08:19:05;6.28;;;1.27;;
69502;SDS011;56704;54.242;12.442;2023-07-13T08:21:33;4.47;;;1.20;;
69502;SDS011;56704;54.242;12.442;2023-07-13T08:24:00;4.47;;;1.48;;
69502;SDS011;56704;54.242;12.442;2023-07-13T08:26:27;6.32;;;2.08;;
69502;SDS011;56704;54.242;12.442;2023-07-13T08:28:55;3.57;;;1.30;;
69502;SDS011;56704;54.242;12.442;2023-07-13T08:31:22;5.00;;;1.40;;
69502;SDS011;56704;54.242;12.442;2023-07-13T08:33:49;3.67;;;1.33;;
69502;SDS011;56704;54.242;12.442;2023-07-13T08:36:17;3.55;;;1.20;;
69502;SDS011;56704;54.242;12.442;2023-07-13T08:38:44;5.00;;;1.50;;
69502;SDS011;56704;54.242;12.442;2023-07-13T08:41:13;4.00;;;1.20;;
69502;SDS011;56704;54.242;12.442;2023-07-13T08:43:41;3.42;;;1.10;;
69502;SDS011;56704;54.242;12.442;2023-07-13T08:46:09;3.63;;;1.20;;
69502;SDS011;56704;54.242;12.442;2023-07-13T08:48:39;2.97;;;1.25;;
69502;SDS011;56704;54.242;12.442;2023-07-13T08:51:11;4.70;;;1.60;;
69502;SDS011;56704;54.242;12.442;2023-07-13T08:53:45;3.60;;;1.43;;
69502;SDS011;56704;54.242;12.442;2023-07-13T08:56:16;4.85;;;1.30;;
69502;SDS011;56704;54.242;12.442;2023-07-13T08:58:44;5.72;;;1.35;;
69502;SDS011;56704;54.242;12.442;2023-07-13T09:01:13;5.82;;;1.17;;
69502;SDS011;56704;54.242;12.442;2023-07-13T09:03:42;3.80;;;1.25;;
69502;SDS011;56704;54.242;12.442;2023-07-13T09:06:13;4.77;;;1.57;;
69502;SDS011;56704;54.242;12.442;2023-07-13T09:08:51;3.65;;;1.13;;
69502;SDS011;56704;54.242;12.442;2023-07-13T09:11:28;3.70;;;0.93;;
69502;SDS011;56704;54.242;12.442;2023-07-13T09:14:00;6.07;;;1.45;;
69502;SDS011;56704;54.242;12.442;2023-07-13T09:16:30;3.17;;;1.20;;
69502;SDS011;56704;54.242;12.442;2023-07-13T09:18:59;3.00;;;1.00;;
69502;SDS011;56704;54.242;12.442;2023-07-13T09:21:28;4.05;;;1.38;;
69502;SDS011;56704;54.242;12.442;2023-07-13T09:23:59;5.38;;;1.73;;
69502;SDS011;56704;54.242;12.442;2023-07-13T09:26:27;4.47;;;1.20;;
69502;SDS011;56704;54.242;12.442;2023-07-13T09:28:57;4.70;;;1.30;;
69502;SDS011;56704;54.242;12.442;2023-07-13T09:31:26;4.03;;;1.33;;
69502;SDS011;56704;54.242;12.442;2023-07-13T09:33:54;4.78;;;1.50;;
69502;SDS011;56704;54.242;12.442;2023-07-13T09:36:24;4.18;;;1.27;;
69502;SDS011;56704;54.242;12.442;2023-07-13T09:38:54;6.20;;;1.85;;
69502;SDS011;56704;54.242;12.442;2023-07-13T09:41:26;4.07;;;1.27;;
69502;SDS011;56704;54.242;12.442;2023-07-13T09:44:06;5.33;;;1.37;;
69502;SDS011;56704;54.242;12.442;2023-07-13T09:46:36;5.15;;;0.98;;
69502;SDS011;56704;54.242;12.442;2023-07-13T09:49:03;6.53;;;1.63;;
69502;SDS011;56704;54.242;12.442;2023-07-13T09:51:30;7.53;;;1.70;;
69502;SDS011;56704;54.242;12.442;2023-07-13T09:53:57;4.68;;;1.40;;
69502;SDS011;56704;54.242;12.442;2023-07-13T09:56:28;5.90;;;1.10;;
69502;SDS011;56704;54.242;12.442;2023-07-13T09:58:55;4.93;;;1.50;;
69502;SDS011;56704;54.242;12.442;2023-07-13T10:01:33;4.57;;;1.70;;
69502;SDS011;56704;54.242;12.442;2023-07-13T10:04:01;5.88;;;1.77;;
69502;SDS011;56704;54.242;12.442;2023-07-13T10:06:28;7.97;;;1.75;;
69502;SDS011;56704;54.242;12.442;2023-07-13T10:08:56;6.93;;;1.67;;
69502;SDS011;56704;54.242;12.442;2023-07-13T10:11:26;10.48;;;2.25;;
69502;SDS011;56704;54.242;12.442;2023-07-13T10:13:56;4.00;;;1.27;;
69502;SDS011;56704;54.242;12.442;2023-07-13T10:16:25;3.30;;;0.85;;
69502;SDS011;56704;54.242;12.442;2023-07-13T10:18:55;2.35;;;0.70;;
69502;SDS011;56704;54.242;12.442;2023-07-13T10:21:26;3.03;;;0.57;;
69502;SDS011;56704;54.242;12.442;2023-07-13T10:23:55;7.88;;;2.00;;
69502;SDS011;56704;54.242;12.442;2023-07-13T10:26:25;2.33;;;0.80;;
69502;SDS011;56704;54.242;12.442;2023-07-13T10:28:54;2.15;;;0.60;;
69502;SDS011;56704;54.242;12.442;2023-07-13T10:31:23;2.40;;;0.77;;
69502;SDS011;56704;54.242;12.442;2023-07-13T10:33:51;4.27;;;1.23;;
69502;SDS011;56704;54.242;12.442;2023-07-13T10:36:20;4.43;;;1.20;;
69502;SDS011;56704;54.242;12.442;2023-07-13T10:38:50;2.67;;;1.05;;
69502;SDS011;56704;54.242;12.442;2023-07-13T10:41:19;3.00;;;1.02;;
69502;SDS011;56704;54.242;12.442;2023-07-13T10:43:48;5.70;;;1.60;;
69502;SDS011;56704;54.242;12.442;2023-07-13T10:46:17;4.83;;;1.17;;
69502;SDS011;56704;54.242;12.442;2023-07-13T10:48:48;6.03;;;1.42;;
69502;SDS011;56704;54.242;12.442;2023-07-13T10:51:17;7.38;;;1.60;;
69502;SDS011;56704;54.242;12.442;2023-07-13T10:53:46;6.20;;;1.52;;
69502;SDS011;56704;54.242;12.442;2023-07-13T10:56:22;6.05;;;2.08;;
69502;SDS011;56704;54.242;12.442;2023-07-13T10:59:01;4.23;;;1.20;;
69502;SDS011;56704;54.242;12.442;2023-07-13T11:01:38;7.45;;;2.33;;
69502;SDS011;56704;54.242;12.442;2023-07-13T11:04:10;5.45;;;1.83;;
69502;SDS011;56704;54.242;12.442;2023-07-13T11:06:40;8.95;;;2.38;;
69502;SDS011;56704;54.242;12.442;2023-07-13T11:09:19;7.68;;;2.30;;
69502;SDS011;56704;54.242;12.442;2023-07-13T11:11:47;11.70;;;2.27;;
69502;SDS011;56704;54.242;12.442;2023-07-13T11:14:28;8.40;;;2.05;;
69502;SDS011;56704;54.242;12.442;2023-07-13T11:16:56;6.47;;;2.45;;
69502;SDS011;56704;54.242;12.442;2023-07-13T11:22:19;4.43;;;1.58;;
69502;SDS011;56704;54.242;12.442;2023-07-13T11:24:49;7.63;;;1.47;;
69502;SDS011;56704;54.242;12.442;2023-07-13T11:27:22;4.60;;;1.40;;
69502;SDS011;56704;54.242;12.442;2023-07-13T11:29:50;7.82;;;1.80;;
69502;SDS011;56704;54.242;12.442;2023-07-13T11:32:24;5.03;;;1.67;;
69502;SDS011;56704;54.242;12.442;2023-07-13T11:34:53;5.95;;;1.77;;
69502;SDS011;56704;54.242;12.442;2023-07-13T11:37:22;5.87;;;1.77;;
69502;SDS011;56704;54.242;12.442;2023-07-13T11:39:50;4.57;;;1.50;;
69502;SDS011;56704;54.242;12.442;2023-07-13T11:42:18;5.38;;;1.45;;
69502;SDS011;56704;54.242;12.442;2023-07-13T11:44:47;5.53;;;1.30;;
69502;SDS011;56704;54.242;12.442;2023-07-13T11:47:17;6.47;;;1.60;;
69502;SDS011;56704;54.242;12.442;2023-07-13T11:49:47;6.67;;;1.70;;
69502;SDS011;56704;54.242;12.442;2023-07-13T11:52:16;7.85;;;1.58;;
69502;SDS011;56704;54.242;12.442;2023-07-13T11:54:47;5.93;;;1.55;;
69502;SDS011;56704;54.242;12.442;2023-07-13T11:57:19;6.00;;;1.73;;
69502;SDS011;56704;54.242;12.442;2023-07-13T11:59:50;5.00;;;1.45;;
69502;SDS011;56704;54.242;12.442;2023-07-13T12:02:19;6.07;;;1.60;;
69502;SDS011;56704;54.242;12.442;2023-07-13T12:04:50;4.55;;;1.20;;
69502;SDS011;56704;54.242;12.442;2023-07-13T12:07:18;4.10;;;1.60;;
69502;SDS011;56704;54.242;12.442;2023-07-13T12:09:47;7.15;;;1.70;;
69502;SDS011;56704;54.242;12.442;2023-07-13T12:12:17;5.20;;;1.40;;
69502;SDS011;56704;54.242;12.442;2023-07-13T12:14:44;5.00;;;1.20;;
69502;SDS011;56704;54.242;12.442;2023-07-13T12:17:15;4.10;;;1.17;;
69502;SDS011;56704;54.242;12.442;2023-07-13T12:19:43;5.47;;;1.35;;
69502;SDS011;56704;54.242;12.442;2023-07-13T12:22:11;6.22;;;1.83;;
69502;SDS011;56704;54.242;12.442;2023-07-13T12:24:39;5.43;;;1.38;;
69502;SDS011;56704;54.242;12.442;2023-07-13T12:27:16;6.03;;;1.40;;
69502;SDS011;56704;54.242;12.442;2023-07-13T12:29:49;4.28;;;1.10;;
69502;SDS011;56704;54.242;12.442;2023-07-13T12:32:18;5.63;;;1.30;;
69502;SDS011;56704;54.242;12.442;2023-07-13T12:34:51;5.05;;;1.33;;
69502;SDS011;56704;54.242;12.442;2023-07-13T12:37:18;5.07;;;1.42;;
69502;SDS011;56704;54.242;12.442;2023-07-13T12:39:45;3.50;;;0.83;;
69502;SDS011;56704;54.242;12.442;2023-07-13T12:42:18;5.70;;;0.90;;
69502;SDS011;56704;54.242;12.442;2023-07-13T12:44:48;4.88;;;0.90;;
69502;SDS011;56704;54.242;12.442;2023-07-13T12:47:16;3.67;;;0.82;;
69502;SDS011;56704;54.242;12.442;2023-07-13T12:49:48;6.53;;;1.15;;
69502;SDS011;56704;54.242;12.442;2023-07-13T12:52:20;4.77;;;1.50;;
69502;SDS011;56704;54.242;12.442;2023-07-13T12:54:54;7.43;;;1.20;;
69502;SDS011;56704;54.242;12.442;2023-07-13T12:57:24;5.60;;;1.40;;
69502;SDS011;56704;54.242;12.442;2023-07-13T12:59:51;3.47;;;1.10;;
69502;SDS011;56704;54.242;12.442;2023-07-13T13:02:27;3.78;;;1.27;;
69502;SDS011;56704;54.242;12.442;2023-07-13T13:04:56;7.40;;;1.33;;
69502;SDS011;56704;54.242;12.442;2023-07-13T13:07:23;4.20;;;1.30;;
69502;SDS011;56704;54.242;12.442;2023-07-13T13:09:51;3.50;;;1.10;;
69502;SDS011;56704;54.242;12.442;2023-07-13T13:12:20;4.35;;;1.20;;
69502;SDS011;56704;54.242;12.442;2023-07-13T13:14:48;3.38;;;1.02;;
69502;SDS011;56704;54.242;12.442;2023-07-13T13:17:18;4.13;;;0.90;;
69502;SDS011;56704;54.242;12.442;2023-07-13T13:19:46;4.90;;;1.00;;
69502;SDS011;56704;54.242;12.442;2023-07-13T13:22:18;3.55;;;0.93;;
69502;SDS011;56704;54.242;12.442;2023-07-13T13:24:45;5.43;;;0.98;;
69502;SDS011;56704;54.242;12.442;2023-07-13T13:27:14;7.13;;;2.58;;
69502;SDS011;56704;54.242;12.442;2023-07-13T13:29:42;6.53;;;1.70;;
69502;SDS011;56704;54.242;12.442;2023-07-13T13:32:12;4.63;;;1.00;;
69502;SDS011;56704;54.242;12.442;2023-07-13T13:34:39;4.78;;;1.02;;
69502;SDS011;56704;54.242;12.442;2023-07-13T13:37:10;4.43;;;1.10;;
69502;SDS011;56704;54.242;12.442;2023-07-13T13:39:43;2.92;;;0.68;;
69502;SDS011;56704;54.242;12.442;2023-07-13T13:42:10;3.80;;;0.90;;
69502;SDS011;56704;54.242;12.442;2023-07-13T13:44:37;3.58;;;0.70;;
69502;SDS011;56704;54.242;12.442;2023-07-13T13:47:07;2.70;;;0.90;;
69502;SDS011;56704;54.242;12.442;2023-07-13T13:49:39;3.03;;;0.77;;
69502;SDS011;56704;54.242;12.442;2023-07-13T13:52:08;4.15;;;1.20;;
69502;SDS011;56704;54.242;12.442;2023-07-13T13:54:35;2.93;;;1.23;;
69502;SDS011;56704;54.242;12.442;2023-07-13T13:57:03;4.97;;;1.15;;
69502;SDS011;56704;54.242;12.442;2023-07-13T13:59:30;6.20;;;1.30;;
69502;SDS011;56704;54.242;12.442;2023-07-13T14:02:07;2.40;;;0.60;;
69502;SDS011;56704;54.242;12.442;2023-07-13T14:04:39;4.22;;;0.70;;
69502;SDS011;56704;54.242;12.442;2023-07-13T14:07:07;2.07;;;0.70;;
69502;SDS011;56704;54.242;12.442;2023-07-13T14:09:34;2.30;;;0.60;;
69502;SDS011;56704;54.242;12.442;2023-07-13T14:12:01;1.98;;;0.60;;
69502;SDS011;56704;54.242;12.442;2023-07-13T14:14:28;1.95;;;0.60;;
69502;SDS011;56704;54.242;12.442;2023-07-13T14:16:56;2.10;;;0.55;;
69502;SDS011;56704;54.242;12.442;2023-07-13T14:19:23;2.57;;;0.80;;
69502;SDS011;56704;54.242;12.442;2023-07-13T14:21:53;2.35;;;0.55;;
69502;SDS011;56704;54.242;12.442;2023-07-13T14:24:20;3.88;;;0.73;;
69502;SDS011;56704;54.242;12.442;2023-07-13T14:26:47;1.88;;;0.65;;
69502;SDS011;56704;54.242;12.442;2023-07-13T14:29:15;2.75;;;0.65;;
69502;SDS011;56704;54.242;12.442;2023-07-13T14:31:43;2.87;;;0.70;;
69502;SDS011;56704;54.242;12.442;2023-07-13T14:34:11;4.47;;;0.85;;
69502;SDS011;56704;54.242;12.442;2023-07-13T14:36:40;2.45;;;0.82;;
69502;SDS011;56704;54.242;12.442;2023-07-13T14:39:12;1.85;;;0.47;;
69502;SDS011;56704;54.242;12.442;2023-07-13T14:41:41;2.67;;;0.60;;
69502;SDS011;56704;54.242;12.442;2023-07-13T14:44:11;2.90;;;0.87;;
69502;SDS011;56704;54.242;12.442;2023-07-13T14:46:38;2.63;;;0.60;;
69502;SDS011;56704;54.242;12.442;2023-07-13T14:49:06;4.15;;;1.17;;